createdAt,value
2018-11-11T00:00:07.560Z,96945.22
2018-11-11T00:02:36.037Z,96933.73
2018-11-11T00:05:04.558Z,96930.75
2018-11-11T00:07:33.014Z,96938.44
2018-11-11T00:10:01.521Z,96940.12
2018-11-11T00:12:30.006Z,96931.19
2018-11-11T00:14:58.492Z,96933.73
2018-11-11T00:17:26.965Z,96945.22
2018-11-11T00:19:55.430Z,96934.58
2018-11-11T00:22:24.062Z,96937.56
2018-11-11T00:24:52.584Z,96939.72
2018-11-11T00:27:21.057Z,96944.81
2018-11-11T00:29:49.535Z,96941.39
2018-11-11T00:32:18.033Z,96938.44
2018-11-11T00:34:46.514Z,96940.12
2018-11-11T00:37:15.020Z,96946.97
2018-11-11T00:39:43.578Z,96955.86
2018-11-11T00:42:12.007Z,96946.49
2018-11-11T00:44:40.473Z,96949.48
2018-11-11T00:47:08.949Z,96963.11
2018-11-11T00:49:37.413Z,96960.95
2018-11-11T00:52:06.596Z,96964.34
2018-11-11T00:54:35.090Z,96965.63
2018-11-11T00:57:03.641Z,96974.16
2018-11-11T00:59:32.137Z,96976.30
2018-11-11T01:02:00.608Z,96974.59
2018-11-11T01:04:29.173Z,96967.37
2018-11-11T01:06:57.670Z,96959.25
2018-11-11T01:09:26.167Z,96958.02
2018-11-11T01:11:54.658Z,96970.73
2018-11-11T01:14:23.155Z,96990.37
2018-11-11T01:16:51.733Z,96984.40
2018-11-11T01:19:20.213Z,96968.22
2018-11-11T01:21:48.681Z,97003.92
2018-11-11T01:24:17.153Z,97017.52
2018-11-11T01:26:45.622Z,97041.79
2018-11-11T01:29:14.102Z,97018.43
2018-11-11T01:31:42.567Z,97032.42
2018-11-11T01:34:11.067Z,97035.02
2018-11-11T01:36:39.623Z,97027.77
2018-11-11T01:39:08.691Z,97022.22
2018-11-11T01:41:37.411Z,97027.72
2018-11-11T01:44:06.126Z,97023.06
2018-11-11T01:46:34.598Z,97040.48
2018-11-11T01:49:03.058Z,97030.67
2018-11-11T01:51:31.539Z,97030.67
2018-11-11T01:54:00.031Z,97025.17
2018-11-11T01:56:28.790Z,97008.98
2018-11-11T01:58:57.263Z,97013.25
2018-11-11T02:01:25.756Z,97013.25
2018-11-11T02:03:54.255Z,97024.30
2018-11-11T02:06:22.725Z,97019.19
2018-11-11T02:08:51.228Z,97003.89
2018-11-11T02:11:19.695Z,97049.36
2018-11-11T02:13:48.188Z,97063.43
2018-11-11T02:16:16.645Z,97067.30
2018-11-11T02:18:45.118Z,97028.99
2018-11-11T02:21:13.695Z,97010.30
2018-11-11T02:23:42.168Z,97024.33
2018-11-11T02:26:10.679Z,97049.41
2018-11-11T02:28:39.166Z,97062.56
2018-11-11T02:31:07.697Z,97070.20
2018-11-11T02:33:36.190Z,97070.69
2018-11-11T02:36:04.678Z,97066.81
2018-11-11T02:38:33.159Z,97071.48
2018-11-11T02:41:01.651Z,97081.29
2018-11-11T02:43:30.116Z,97082.13
2018-11-11T02:45:58.602Z,97079.57
2018-11-11T02:48:27.066Z,97102.09
2018-11-11T02:50:55.559Z,97101.30
2018-11-11T02:53:24.068Z,97106.80
2018-11-11T02:55:52.559Z,97096.16
2018-11-11T02:58:21.065Z,97089.34
2018-11-11T03:00:49.541Z,97099.55
2018-11-11T03:03:18.017Z,97100.82
2018-11-11T03:05:46.490Z,97100.82
2018-11-11T03:08:14.968Z,97102.97
2018-11-11T03:10:43.444Z,97113.17
2018-11-11T03:13:11.918Z,97100.42
2018-11-11T03:15:40.394Z,97103.02
2018-11-11T03:18:08.889Z,97106.80
2018-11-11T03:20:37.362Z,97102.58
2018-11-11T03:23:06.214Z,97109.79
2018-11-11T03:25:34.692Z,97115.38
2018-11-11T03:28:03.188Z,97116.17
2018-11-11T03:30:31.672Z,97117.92
2018-11-11T03:33:00.166Z,97123.83
2018-11-11T03:35:28.656Z,97109.75
2018-11-11T03:37:57.167Z,97107.63
2018-11-11T03:40:25.667Z,97109.75
2018-11-11T03:42:54.141Z,97113.17
2018-11-11T03:45:22.637Z,97103.38
2018-11-11T03:47:52.059Z,97099.55
2018-11-11T03:50:20.537Z,97094.88
2018-11-11T03:52:49.321Z,97095.31
2018-11-11T03:55:17.905Z,97093.17
2018-11-11T03:57:46.446Z,97093.17
2018-11-11T04:00:16.102Z,97092.33
2018-11-11T04:02:44.578Z,97080.84
2018-11-11T04:05:14.401Z,97080.45
2018-11-11T04:07:42.891Z,97080.89
2018-11-11T04:10:13.668Z,97077.86
2018-11-11T04:12:42.435Z,97071.92
2018-11-11T04:15:13.123Z,97076.14
2018-11-11T04:17:41.693Z,97072.77
2018-11-11T04:20:12.141Z,97083.00
2018-11-11T04:22:40.618Z,97076.23
2018-11-11T04:27:36.589Z,97078.38
2018-11-11T04:30:05.771Z,97069.41
2018-11-11T04:32:34.245Z,97062.20
2018-11-11T04:35:02.702Z,97069.02
2018-11-11T04:37:31.167Z,97088.59
2018-11-11T04:39:59.641Z,97093.25
2018-11-11T04:42:28.107Z,97090.70
2018-11-11T04:44:56.580Z,97088.59
2018-11-11T04:47:25.085Z,97089.03
2018-11-11T04:49:53.803Z,97100.19
2018-11-11T04:52:22.266Z,97104.01
2018-11-11T04:54:50.739Z,97109.55
2018-11-11T04:57:19.232Z,97106.13
2018-11-11T04:59:47.711Z,97109.95
2018-11-11T05:02:16.171Z,97101.86
2018-11-11T05:04:44.753Z,97102.73
2018-11-11T05:07:13.145Z,97101.86
2018-11-11T05:09:41.621Z,97099.75
2018-11-11T05:12:10.091Z,97098.08
2018-11-11T05:14:38.572Z,97100.19
2018-11-11T05:17:07.026Z,97096.76
2018-11-11T05:19:35.508Z,97094.65
2018-11-11T05:22:04.052Z,97092.53
2018-11-11T05:24:32.479Z,97103.18
2018-11-11T05:27:00.938Z,97095.92
2018-11-11T05:29:29.386Z,97097.63
2018-11-11T05:31:57.859Z,97096.36
2018-11-11T05:34:26.336Z,97090.82
2018-11-11T05:36:54.802Z,97098.08
2018-11-11T05:39:23.259Z,97106.56
2018-11-11T05:41:51.719Z,97112.94
2018-11-11T05:44:20.185Z,97116.77
2018-11-11T05:46:48.650Z,97117.16
2018-11-11T05:49:17.131Z,97118.89
2018-11-11T05:51:45.603Z,97127.41
2018-11-11T05:54:14.082Z,97124.86
2018-11-11T05:56:42.575Z,97122.71
2018-11-11T05:59:11.059Z,97114.26
2018-11-11T06:01:39.577Z,97112.11
2018-11-11T06:04:08.036Z,97134.23
2018-11-11T06:06:36.499Z,97165.28
2018-11-11T06:11:33.351Z,97150.82
2018-11-11T06:14:01.843Z,97148.70
2018-11-11T06:16:30.323Z,97144.44
2018-11-11T06:18:58.786Z,97139.77
2018-11-11T06:21:27.259Z,97156.36
2018-11-11T06:23:55.735Z,97155.08
2018-11-11T06:26:24.228Z,97146.95
2018-11-11T06:28:52.731Z,97169.52
2018-11-11T06:31:21.206Z,97125.70
2018-11-11T06:33:49.689Z,97116.81
2018-11-11T06:36:18.164Z,97115.49
2018-11-11T06:38:46.656Z,97116.77
2018-11-11T06:41:15.118Z,97115.89
2018-11-11T06:43:43.600Z,97115.49
2018-11-11T06:46:12.060Z,97104.01
2018-11-11T06:48:40.517Z,97108.23
2018-11-11T06:53:36.430Z,97136.74
2018-11-11T06:56:04.894Z,97148.66
2018-11-11T06:58:33.360Z,97132.08
2018-11-11T07:01:01.824Z,97143.13
2018-11-11T07:03:43.774Z,97155.08
2018-11-11T07:06:12.255Z,97155.92
2018-11-11T07:08:40.720Z,97161.02
2018-11-11T07:11:09.198Z,97158.08
2018-11-11T07:13:37.671Z,97149.55
2018-11-11T07:16:06.321Z,97139.81
2018-11-11T07:18:34.804Z,97139.38
2018-11-11T07:21:03.287Z,97130.45
2018-11-11T07:23:31.769Z,97139.38
2018-11-11T07:26:00.230Z,97163.63
2018-11-11T07:28:28.699Z,97175.98
2018-11-11T07:30:57.160Z,97183.23
2018-11-11T07:33:25.736Z,97193.44
2018-11-11T07:35:54.215Z,97197.66
2018-11-11T07:38:22.714Z,97205.31
2018-11-11T07:40:51.217Z,97203.21
2018-11-11T07:43:19.803Z,97197.66
2018-11-11T07:45:48.656Z,97195.55
2018-11-11T07:48:17.137Z,97203.21
2018-11-11T07:50:45.603Z,97214.30
2018-11-11T07:53:14.073Z,97215.52
2018-11-11T07:55:42.555Z,97228.33
2018-11-11T07:58:11.029Z,97235.58
2018-11-11T08:00:39.519Z,97245.31
2018-11-11T08:03:08.018Z,97253.80
2018-11-11T08:05:36.585Z,97270.77
2018-11-11T08:08:05.375Z,97283.53
2018-11-11T08:10:45.006Z,97290.34
2018-11-11T08:13:13.457Z,97288.63
2018-11-11T08:15:41.935Z,97295.84
2018-11-11T08:18:10.390Z,97286.91
2018-11-11T08:20:38.847Z,97280.94
2018-11-11T08:23:07.330Z,97272.88
2018-11-11T08:25:35.886Z,97244.77
2018-11-11T08:28:04.320Z,97252.88
2018-11-11T08:30:32.787Z,97232.89
2018-11-11T08:33:01.257Z,97227.79
2018-11-11T08:35:29.728Z,97224.81
2018-11-11T08:37:58.177Z,97237.99
2018-11-11T08:40:26.672Z,97259.20
2018-11-11T08:42:55.124Z,97293.25
2018-11-11T08:45:23.610Z,97287.27
2018-11-11T08:47:52.083Z,97296.63
2018-11-11T08:50:20.564Z,97320.44
2018-11-11T08:52:49.053Z,97335.34
2018-11-11T08:55:17.522Z,97356.58
2018-11-11T08:57:46.018Z,97381.67
2018-11-11T09:00:15.174Z,97411.01
2018-11-11T09:02:43.646Z,97448.48
2018-11-11T09:05:12.119Z,97441.23
2018-11-11T09:07:40.571Z,97421.27
2018-11-11T09:10:10.872Z,97420.42
2018-11-11T09:12:39.326Z,97429.34
2018-11-11T09:15:10.051Z,97427.20
2018-11-11T09:17:38.744Z,97425.47
2018-11-11T09:20:07.699Z,97435.73
2018-11-11T09:22:36.284Z,97435.73
2018-11-11T09:25:05.484Z,97436.12
2018-11-11T09:27:33.967Z,97428.87
2018-11-11T09:30:02.431Z,97417.39
2018-11-11T09:32:30.931Z,97404.23
2018-11-11T09:34:59.412Z,97408.06
2018-11-11T09:37:27.898Z,97410.16
2018-11-11T09:39:56.380Z,97396.13
2018-11-11T09:42:24.920Z,97391.42
2018-11-11T09:44:53.351Z,97379.55
2018-11-11T09:47:21.820Z,97389.32
2018-11-11T09:49:50.353Z,97396.13
2018-11-11T09:52:19.105Z,97404.68
2018-11-11T09:54:47.574Z,97411.89
2018-11-11T09:57:16.040Z,97405.91
2018-11-11T10:02:12.089Z,97406.78
2018-11-11T10:04:46.250Z,97418.66
2018-11-11T10:07:23.798Z,97429.30
2018-11-11T10:09:59.250Z,97438.23
2018-11-11T10:13:36.018Z,97432.64
2018-11-11T10:16:13.708Z,97450.50
2018-11-11T10:18:47.005Z,97439.02
2018-11-11T10:21:37.392Z,97437.75
2018-11-11T10:24:20.506Z,97441.17
2018-11-11T10:27:04.756Z,97422.44
2018-11-11T10:31:44.910Z,97418.21
2018-11-11T10:34:22.606Z,97405.06
2018-11-11T10:36:59.977Z,97405.50
2018-11-11T10:39:33.533Z,97402.03
2018-11-11T10:42:09.496Z,97401.63
2018-11-11T10:44:49.765Z,97394.86
2018-11-11T10:47:26.515Z,97399.53
2018-11-11T10:49:58.464Z,97391.82
2018-11-11T10:54:54.755Z,97379.55
2018-11-11T10:57:23.376Z,97377.84
2018-11-11T10:59:51.838Z,97371.45
2018-11-11T11:02:24.442Z,97368.11
2018-11-11T11:04:58.064Z,97358.75
2018-11-11T11:07:26.537Z,97362.58
2018-11-11T11:09:54.990Z,97366.41
2018-11-11T11:12:23.459Z,97351.92
2018-11-11T11:14:51.927Z,97342.17
2018-11-11T11:17:20.391Z,97335.34
2018-11-11T11:19:48.866Z,97323.03
2018-11-11T11:22:17.333Z,97330.23
2018-11-11T11:24:45.827Z,97329.41
2018-11-11T11:27:14.333Z,97329.41
2018-11-11T11:29:42.795Z,97326.86
2018-11-11T11:32:11.363Z,97323.91
2018-11-11T11:34:39.780Z,97317.53
2018-11-11T11:37:08.254Z,97313.70
2018-11-11T11:39:36.720Z,97312.03
2018-11-11T11:42:05.377Z,97319.69
2018-11-11T11:44:33.840Z,97323.91
2018-11-11T11:47:02.324Z,97323.91
2018-11-11T11:49:30.800Z,97323.03
2018-11-11T11:51:59.311Z,97332.44
2018-11-11T11:54:27.749Z,97336.67
2018-11-11T11:56:56.359Z,97349.03
2018-11-11T11:59:24.820Z,97349.82
2018-11-11T12:01:53.304Z,97368.95
2018-11-11T12:04:21.788Z,97363.02
2018-11-11T12:06:50.324Z,97358.36
2018-11-11T12:09:18.967Z,97362.19
2018-11-11T12:11:47.384Z,97363.45
2018-11-11T12:14:15.849Z,97380.05
2018-11-11T12:16:44.402Z,97379.16
2018-11-11T12:19:12.813Z,97377.05
2018-11-11T12:21:41.300Z,97387.64
2018-11-11T12:24:09.771Z,97382.55
2018-11-11T12:26:38.288Z,97373.62
2018-11-11T12:29:06.764Z,97355.31
2018-11-11T12:31:35.308Z,97354.08
2018-11-11T12:34:03.811Z,97347.22
2018-11-11T12:36:32.275Z,97342.13
2018-11-11T12:39:00.764Z,97348.93
2018-11-11T12:41:29.236Z,97350.25
2018-11-11T12:43:57.702Z,97350.66
2018-11-11T12:46:26.159Z,97341.33
2018-11-11T12:48:54.651Z,97343.00
2018-11-11T12:51:23.117Z,97340.50
2018-11-11T12:53:51.583Z,97333.67
2018-11-11T12:56:20.110Z,97342.60
2018-11-11T12:58:48.575Z,97352.38
2018-11-11T13:01:17.077Z,97334.95
2018-11-11T13:03:45.553Z,97331.56
2018-11-11T13:06:14.016Z,97324.74
2018-11-11T13:08:42.511Z,97323.03
2018-11-11T13:11:11.023Z,97320.09
2018-11-11T13:13:39.504Z,97317.53
2018-11-11T13:16:08.453Z,97324.36
2018-11-11T13:18:36.935Z,97319.69
2018-11-11T13:21:05.682Z,97332.89
2018-11-11T13:23:34.163Z,97338.44
2018-11-11T13:26:02.640Z,97336.72
2018-11-11T13:28:31.110Z,97337.99
2018-11-11T13:30:59.579Z,97341.82
2018-11-11T13:33:28.038Z,97344.38
2018-11-11T13:35:56.512Z,97347.75
2018-11-11T13:38:25.101Z,97341.82
2018-11-11T13:40:53.549Z,97339.66
2018-11-11T13:43:22.077Z,97347.75
2018-11-11T13:45:50.519Z,97351.58
2018-11-11T13:48:18.987Z,97356.68
2018-11-11T13:50:47.468Z,97354.97
2018-11-11T13:53:15.937Z,97355.85
2018-11-11T13:55:44.452Z,97358.80
2018-11-11T13:58:12.915Z,97357.53
2018-11-11T14:00:42.262Z,97357.58
2018-11-11T14:03:10.719Z,97359.68
2018-11-11T14:05:39.175Z,97363.50
2018-11-11T14:08:07.732Z,97367.34
2018-11-11T14:10:36.169Z,97380.48
2018-11-11T14:13:04.916Z,97381.31
2018-11-11T14:15:33.397Z,97389.02
2018-11-11T14:18:01.912Z,97389.42
2018-11-11T14:20:30.406Z,97389.42
2018-11-11T14:22:58.845Z,97396.67
2018-11-11T14:25:29.073Z,97397.51
2018-11-11T14:27:57.535Z,97391.17
2018-11-11T14:30:26.941Z,97389.85
2018-11-11T14:32:56.343Z,97394.95
2018-11-11T14:35:24.822Z,97393.25
2018-11-11T14:37:53.472Z,97389.90
2018-11-11T14:40:26.303Z,97394.13
2018-11-11T14:42:54.833Z,97394.52
2018-11-11T14:45:23.652Z,97392.41
2018-11-11T14:47:53.288Z,97389.02
2018-11-11T14:50:22.412Z,97397.51
2018-11-11T14:52:51.035Z,97417.48
2018-11-11T14:55:21.820Z,97416.20
2018-11-11T14:57:50.425Z,97423.02
2018-11-11T15:00:23.178Z,97426.84
2018-11-11T15:02:58.583Z,97423.07
2018-11-11T15:05:27.060Z,97422.59
2018-11-11T15:07:55.562Z,97421.31
2018-11-11T15:10:24.023Z,97412.86
2018-11-11T15:12:52.571Z,97395.84
2018-11-11T15:15:21.898Z,97399.67
2018-11-11T15:17:50.962Z,97401.37
2018-11-11T15:20:19.495Z,97408.98
2018-11-11T15:22:48.385Z,97419.19
2018-11-11T15:25:18.226Z,97417.48
2018-11-11T15:27:47.300Z,97418.77
2018-11-11T15:30:32.511Z,97421.74
2018-11-11T15:33:01.584Z,97414.48
2018-11-11T15:35:30.062Z,97411.94
2018-11-11T15:37:58.610Z,97414.09
2018-11-11T15:40:32.351Z,97411.11
2018-11-11T15:43:00.931Z,97414.09
2018-11-11T15:45:30.619Z,97419.24
2018-11-11T15:47:59.416Z,97420.91
2018-11-11T15:50:29.205Z,97422.19
2018-11-11T15:52:59.771Z,97432.80
2018-11-11T15:55:29.467Z,97437.05
2018-11-11T15:57:57.931Z,97437.05
2018-11-11T16:00:29.739Z,97434.50
2018-11-11T16:02:58.233Z,97428.97
2018-11-11T16:05:26.706Z,97426.42
2018-11-11T16:07:56.004Z,97431.52
2018-11-11T16:10:26.610Z,97432.40
2018-11-11T16:12:55.093Z,97416.64
2018-11-11T16:15:25.694Z,97411.11
2018-11-11T16:17:55.819Z,97406.83
2018-11-11T16:20:25.576Z,97402.17
2018-11-11T16:22:55.345Z,97392.85
2018-11-11T16:25:23.871Z,97385.20
2018-11-11T16:27:52.300Z,97402.66
2018-11-11T16:30:24.783Z,97403.88
2018-11-11T16:32:53.830Z,97403.88
2018-11-11T16:35:23.334Z,97399.58
2018-11-11T16:37:51.804Z,97405.95
2018-11-11T16:40:22.530Z,97431.52
2018-11-11T16:42:51.520Z,97439.55
2018-11-11T16:45:22.144Z,97442.10
2018-11-11T16:47:50.629Z,97446.38
2018-11-11T16:50:21.350Z,97436.57
2018-11-11T16:52:50.444Z,97433.63
2018-11-11T16:55:20.283Z,97433.63
2018-11-11T16:57:48.774Z,97436.62
2018-11-11T17:00:19.492Z,97431.08
2018-11-11T17:02:48.570Z,97433.63
2018-11-11T17:05:18.454Z,97430.20
2018-11-11T17:07:47.142Z,97431.08
2018-11-11T17:10:17.061Z,97428.47
2018-11-11T17:12:46.484Z,97439.33
2018-11-11T17:15:16.192Z,97449.58
2018-11-11T17:17:44.691Z,97454.23
2018-11-11T17:20:15.719Z,97460.56
2018-11-11T17:22:44.817Z,97471.89
2018-11-11T17:25:14.268Z,97477.20
2018-11-11T17:27:42.996Z,97486.86
2018-11-11T17:30:15.595Z,97494.41
2018-11-11T17:32:44.778Z,97498.52
2018-11-11T17:35:13.312Z,97515.93
2018-11-11T17:37:42.241Z,97518.88
2018-11-11T17:40:14.674Z,97523.98
2018-11-11T17:42:44.323Z,97525.79
2018-11-11T17:45:13.324Z,97524.86
2018-11-11T17:47:42.291Z,97525.20
2018-11-11T17:50:14.376Z,97529.91
2018-11-11T17:52:42.875Z,97528.62
2018-11-11T17:55:12.697Z,97528.29
2018-11-11T17:57:41.545Z,97529.56
2018-11-11T18:00:11.417Z,97530.41
2018-11-11T18:02:39.844Z,97527.06
2018-11-11T18:05:09.513Z,97533.02
2018-11-11T18:07:37.966Z,97525.84
2018-11-11T18:10:08.899Z,97504.23
2018-11-11T18:12:37.879Z,97523.74
2018-11-11T18:15:06.878Z,97519.04
2018-11-11T18:17:35.365Z,97521.25
2018-11-11T18:20:03.858Z,97516.54
2018-11-11T18:22:32.350Z,97515.27
2018-11-11T18:25:00.837Z,97512.66
2018-11-11T18:27:29.502Z,97519.97
2018-11-11T18:29:57.847Z,97527.62
2018-11-11T18:32:26.335Z,97528.90
2018-11-11T18:34:54.809Z,97524.67
2018-11-11T18:37:23.300Z,97525.95
2018-11-11T18:39:52.572Z,97529.35
2018-11-11T18:42:21.193Z,97529.35
2018-11-11T18:44:49.669Z,97525.52
2018-11-11T18:47:18.141Z,97521.70
2018-11-11T18:49:46.605Z,97524.67
2018-11-11T18:52:15.090Z,97529.41
2018-11-11T18:54:43.564Z,97533.66
2018-11-11T18:57:12.228Z,97540.88
2018-11-11T18:59:40.611Z,97531.90
2018-11-11T19:02:09.089Z,97528.07
2018-11-11T19:04:37.561Z,97523.85
2018-11-11T19:07:06.073Z,97514.47
2018-11-11T19:09:34.543Z,97514.92
2018-11-11T19:12:03.019Z,97514.05
2018-11-11T19:14:31.483Z,97517.47
2018-11-11T19:16:59.982Z,97511.49
2018-11-11T19:19:28.468Z,97505.99
2018-11-11T19:21:56.950Z,97513.25
2018-11-11T19:24:25.623Z,97517.47
2018-11-11T19:26:54.132Z,97522.58
2018-11-11T19:29:22.620Z,97525.95
2018-11-11T19:31:51.164Z,97531.50
2018-11-11T19:34:19.626Z,97533.60
2018-11-11T19:36:48.115Z,97527.67
2018-11-11T19:39:16.586Z,97533.66
2018-11-11T19:41:45.040Z,97544.31
2018-11-11T19:44:13.532Z,97544.66
2018-11-11T19:46:42.012Z,97557.02
2018-11-11T19:49:10.511Z,97552.80
2018-11-11T19:51:39.037Z,97562.12
2018-11-11T19:54:07.503Z,97558.69
2018-11-11T19:56:36.093Z,97562.46
2018-11-11T19:59:04.770Z,97562.06
2018-11-11T20:01:33.244Z,97566.28
2018-11-11T20:04:01.737Z,97568.84
2018-11-11T20:06:30.456Z,97573.55
2018-11-11T20:08:59.026Z,97576.09
2018-11-11T20:11:29.277Z,97569.33
2018-11-11T20:13:57.844Z,97566.72
2018-11-11T20:16:26.537Z,97569.72
2018-11-11T20:18:55.163Z,97572.66
2018-11-11T20:21:24.163Z,97577.77
2018-11-11T20:23:53.559Z,97573.48
2018-11-11T20:26:22.864Z,97582.02
2018-11-11T20:28:51.630Z,97582.81
2018-11-11T20:31:21.037Z,97595.17
2018-11-11T20:33:50.575Z,97599.39
2018-11-11T20:36:19.341Z,97609.20
2018-11-11T20:38:48.031Z,97617.25
2018-11-11T20:41:16.535Z,97619.80
2018-11-11T20:43:45.876Z,97625.39
2018-11-11T20:46:14.410Z,97616.47
2018-11-11T20:48:42.884Z,97623.23
2018-11-11T20:51:11.395Z,97612.20
2018-11-11T20:53:39.876Z,97611.75
2018-11-11T20:56:08.453Z,97604.10
2018-11-11T20:58:36.989Z,97601.95
2018-11-11T21:01:05.748Z,97610.48
2018-11-11T21:03:34.321Z,97612.58
2018-11-11T21:06:02.881Z,97613.43
2018-11-11T21:08:31.693Z,97619.36
2018-11-11T21:11:00.260Z,97628.28
2018-11-11T21:13:29.391Z,97626.61
2018-11-11T21:15:57.941Z,97624.84
2018-11-11T21:18:26.452Z,97617.20
2018-11-11T21:20:55.010Z,97618.02
2018-11-11T21:23:23.504Z,97620.17
2018-11-11T21:25:52.184Z,97614.20
2018-11-11T21:28:20.820Z,97617.20
2018-11-11T21:30:49.412Z,97608.27
2018-11-11T21:33:17.911Z,97599.83
2018-11-11T21:35:46.419Z,97596.39
2018-11-11T21:38:15.048Z,97585.73
2018-11-11T21:40:43.550Z,97588.30
2018-11-11T21:43:12.086Z,97597.22
2018-11-11T21:45:40.713Z,97604.93
2018-11-11T21:48:09.203Z,97608.70
2018-11-11T21:50:37.776Z,97604.39
2018-11-11T21:53:12.577Z,97600.99
2018-11-11T21:55:41.184Z,97597.56
2018-11-11T21:58:09.837Z,97602.20
2018-11-11T22:00:38.377Z,97616.63
2018-11-11T22:03:06.924Z,97613.63
2018-11-11T22:05:35.568Z,97620.86
2018-11-11T22:08:04.154Z,97618.25
2018-11-11T22:10:32.700Z,97618.25
2018-11-11T22:13:01.212Z,97625.45
2018-11-11T22:15:29.790Z,97632.70
2018-11-11T22:17:58.354Z,97633.55
2018-11-11T22:20:26.923Z,97636.11
2018-11-11T22:22:55.510Z,97637.38
2018-11-11T22:25:24.114Z,97633.98
2018-11-11T22:27:52.669Z,97639.09
2018-11-11T22:30:21.204Z,97634.77
2018-11-11T22:32:49.744Z,97639.03
2018-11-11T22:35:18.262Z,97633.92
2018-11-11T22:37:46.844Z,97644.13
2018-11-11T22:40:15.411Z,97635.59
2018-11-11T22:42:43.942Z,97639.81
2018-11-11T22:45:14.702Z,97636.48
2018-11-11T22:47:43.255Z,97636.88
2018-11-11T22:50:13.523Z,97639.42
2018-11-11T22:52:42.165Z,97633.05
2018-11-11T22:55:11.368Z,97630.49
2018-11-11T22:57:40.125Z,97629.61
2018-11-11T23:00:18.986Z,97639.03
2018-11-11T23:02:47.511Z,97646.19
2018-11-11T23:05:17.247Z,97638.97
2018-11-11T23:07:45.803Z,97650.91
2018-11-11T23:10:14.427Z,97653.45
2018-11-11T23:12:43.052Z,97660.22
2018-11-11T23:15:12.763Z,97663.59
2018-11-11T23:17:41.371Z,97663.59
2018-11-11T23:20:12.869Z,97675.53
2018-11-11T23:22:41.862Z,97664.48
2018-11-11T23:25:12.060Z,97654.28
2018-11-11T23:27:40.734Z,97660.22
2018-11-11T23:30:12.294Z,97664.48
2018-11-11T23:32:40.989Z,97672.13
2018-11-11T23:35:10.136Z,97671.31
2018-11-11T23:37:38.715Z,97672.98
2018-11-11T23:40:09.244Z,97674.68
2018-11-11T23:42:37.828Z,97678.08
2018-11-11T23:45:07.219Z,97671.64
2018-11-11T23:47:35.816Z,97661.92
2018-11-11T23:50:04.797Z,97662.33
2018-11-11T23:52:33.414Z,97682.73
2018-11-11T23:55:02.064Z,97668.70
2018-11-11T23:57:30.636Z,97665.75
2018-11-11T23:59:59.200Z,97667.09
